createdAt,value
2018-07-25T00:30:21.301Z,21.44
2018-07-25T00:32:50.277Z,21.42
2018-07-25T00:35:16.866Z,21.41
2018-07-25T00:37:43.352Z,21.38
2018-07-25T00:40:10.039Z,21.34
2018-07-25T00:42:36.839Z,21.26
2018-07-25T00:45:03.284Z,21.01
2018-07-25T00:47:29.791Z,20.79
2018-07-25T00:49:59.815Z,20.73
2018-07-25T00:52:29.617Z,20.71
2018-07-25T00:54:57.652Z,20.71
2018-07-25T00:57:24.149Z,20.70
2018-07-25T00:59:50.632Z,20.81
2018-07-25T01:02:17.528Z,20.91
2018-07-25T01:04:43.969Z,21.12
2018-07-25T01:07:10.430Z,21.32
2018-07-25T01:09:36.942Z,21.47
2018-07-25T01:12:04.903Z,21.58
2018-07-25T01:14:31.370Z,21.39
2018-07-25T01:16:57.820Z,21.08
2018-07-25T01:19:24.323Z,21.04
2018-07-25T01:21:51.175Z,21.06
2018-07-25T01:24:17.678Z,21.07
2018-07-25T01:26:44.151Z,21.00
2018-07-25T01:29:12.016Z,20.88
2018-07-25T01:31:38.522Z,20.86
2018-07-25T01:34:04.981Z,20.86
2018-07-25T01:36:31.489Z,20.73
2018-07-25T01:38:59.270Z,20.43
2018-07-25T01:41:25.722Z,20.17
2018-07-25T01:43:52.185Z,19.90
2018-07-25T01:46:19.176Z,19.71
2018-07-25T01:48:46.122Z,19.72
2018-07-25T01:51:12.588Z,19.94
2018-07-25T01:53:39.099Z,19.97
2018-07-25T01:56:05.650Z,19.87
2018-07-25T01:58:32.119Z,19.71
2018-07-25T02:00:58.587Z,19.52
2018-07-25T02:03:25.101Z,19.43
2018-07-25T02:05:52.055Z,19.39
2018-07-25T02:08:18.659Z,19.41
2018-07-25T02:10:45.187Z,19.34
2018-07-25T02:13:11.671Z,19.30
2018-07-25T02:15:38.652Z,19.25
2018-07-25T02:18:05.157Z,19.30
2018-07-25T02:20:31.618Z,19.33
2018-07-25T02:22:58.093Z,19.30
2018-07-25T02:25:26.040Z,19.37
2018-07-25T02:27:52.540Z,19.44
2018-07-25T02:30:19.029Z,19.48
2018-07-25T02:32:45.523Z,19.56
2018-07-25T02:35:12.400Z,19.47
2018-07-25T02:37:39.654Z,19.34
2018-07-25T02:40:06.159Z,19.27
2018-07-25T02:42:32.710Z,19.30
2018-07-25T02:44:59.592Z,19.26
2018-07-25T02:47:26.081Z,19.39
2018-07-25T02:49:52.545Z,19.39
2018-07-25T02:52:19.371Z,19.38
2018-07-25T02:54:45.880Z,19.46
2018-07-25T02:57:12.349Z,19.46
2018-07-25T02:59:39.307Z,19.36
2018-07-25T03:02:05.772Z,19.22
2018-07-25T03:04:32.287Z,19.23
2018-07-25T03:06:58.901Z,19.41
2018-07-25T03:09:25.791Z,19.51
2018-07-25T03:11:52.299Z,19.43
2018-07-25T03:14:18.779Z,19.37
2018-07-25T03:16:45.271Z,19.31
2018-07-25T03:19:12.260Z,19.27
2018-07-25T03:21:38.753Z,19.32
2018-07-25T03:24:05.249Z,19.41
2018-07-25T03:26:31.731Z,19.48
2018-07-25T03:28:58.244Z,19.56
2018-07-25T03:31:24.785Z,19.53
2018-07-25T03:33:55.952Z,19.44
2018-07-25T03:36:23.491Z,19.45
2018-07-25T03:38:50.448Z,19.48
2018-07-25T03:41:16.923Z,19.39
2018-07-25T03:43:43.896Z,19.31
2018-07-25T03:46:10.516Z,19.17
2018-07-25T03:48:36.986Z,19.15
2018-07-25T03:51:03.474Z,19.12
2018-07-25T03:53:30.474Z,19.04
2018-07-25T03:55:56.927Z,19.12
2018-07-25T03:58:23.394Z,19.26
2018-07-25T04:00:49.860Z,19.28
2018-07-25T04:03:16.822Z,19.25
2018-07-25T04:05:43.370Z,19.28
2018-07-25T04:08:10.624Z,19.34
2018-07-25T04:10:37.528Z,19.64
2018-07-25T04:13:04.009Z,19.84
2018-07-25T04:15:30.507Z,19.76
2018-07-25T04:17:57.425Z,19.63
2018-07-25T04:20:23.921Z,19.41
2018-07-25T04:22:50.419Z,19.26
2018-07-25T04:25:16.943Z,19.19
2018-07-25T04:27:43.769Z,19.21
2018-07-25T04:30:10.408Z,19.20
2018-07-25T04:32:36.868Z,19.14
2018-07-25T04:35:03.330Z,19.20
2018-07-25T04:37:30.232Z,19.29
2018-07-25T04:39:56.700Z,19.40
2018-07-25T04:42:23.460Z,19.53
2018-07-25T04:44:50.426Z,19.71
2018-07-25T04:47:16.932Z,19.78
2018-07-25T04:49:43.419Z,19.76
2018-07-25T04:52:10.518Z,19.79
2018-07-25T04:54:37.043Z,19.88
2018-07-25T04:57:03.679Z,19.92
2018-07-25T04:59:30.209Z,19.94
2018-07-25T05:01:56.757Z,19.95
2018-07-25T05:04:23.685Z,19.96
2018-07-25T05:06:50.207Z,20.07
2018-07-25T05:09:16.696Z,20.12
2018-07-25T05:11:43.634Z,20.11
2018-07-25T05:14:10.103Z,20.00
2018-07-25T05:16:36.588Z,19.93
2018-07-25T05:19:03.468Z,19.92
2018-07-25T05:21:29.941Z,20.05
2018-07-25T05:23:56.537Z,20.25
2018-07-25T05:26:23.497Z,20.36
2018-07-25T05:28:49.995Z,20.49
2018-07-25T05:31:16.488Z,20.75
2018-07-25T05:33:43.274Z,20.87
2018-07-25T05:36:10.776Z,20.90
2018-07-25T05:38:37.262Z,21.00
2018-07-25T05:41:04.040Z,21.15
2018-07-25T05:43:30.504Z,21.29
2018-07-25T05:45:57.761Z,21.40
2018-07-25T05:48:24.554Z,21.49
2018-07-25T05:50:51.029Z,21.40
2018-07-25T05:53:17.485Z,21.23
2018-07-25T05:55:44.238Z,21.11
2018-07-25T05:58:10.698Z,21.05
2018-07-25T06:00:37.172Z,21.04
2018-07-25T06:03:04.070Z,21.12
2018-07-25T06:05:30.631Z,21.28
2018-07-25T06:07:57.143Z,21.49
2018-07-25T06:10:24.781Z,21.52
2018-07-25T06:12:51.300Z,21.55
2018-07-25T06:15:17.826Z,21.66
2018-07-25T06:17:44.589Z,21.83
2018-07-25T06:20:11.060Z,22.01
2018-07-25T06:22:37.528Z,22.22
2018-07-25T06:25:05.127Z,22.37
2018-07-25T06:27:31.635Z,22.47
2018-07-25T06:29:58.369Z,22.71
2018-07-25T06:32:25.154Z,22.84
2018-07-25T06:34:51.681Z,22.99
2018-07-25T06:37:18.223Z,23.22
2018-07-25T06:39:45.076Z,23.45
2018-07-25T06:42:12.629Z,23.76
2018-07-25T06:44:39.162Z,24.00
2018-07-25T06:47:07.009Z,24.09
2018-07-25T06:49:34.135Z,24.20
2018-07-25T06:52:00.677Z,24.27
2018-07-25T06:54:28.685Z,24.35
2018-07-25T06:56:55.270Z,24.47
2018-07-25T06:59:21.804Z,24.65
2018-07-25T07:01:48.685Z,24.82
2018-07-25T07:04:15.229Z,24.91
2018-07-25T07:06:41.812Z,25.03
2018-07-25T07:09:08.680Z,25.16
2018-07-25T07:11:36.036Z,25.39
2018-07-25T07:14:02.589Z,25.53
2018-07-25T07:16:29.420Z,25.64
2018-07-25T07:18:55.960Z,25.83
2018-07-25T07:21:22.501Z,25.88
2018-07-25T07:23:49.428Z,25.88
2018-07-25T07:26:15.948Z,26.00
2018-07-25T07:28:42.464Z,26.12
2018-07-25T07:31:09.902Z,26.23
2018-07-25T07:33:36.457Z,26.19
2018-07-25T07:36:02.980Z,26.16
2018-07-25T07:38:29.854Z,26.18
2018-07-25T07:40:57.046Z,26.18
2018-07-25T07:43:23.580Z,26.27
2018-07-25T07:45:50.416Z,26.36
2018-07-25T07:48:16.929Z,26.59
2018-07-25T07:50:43.453Z,26.85
2018-07-25T07:53:10.295Z,27.11
2018-07-25T07:55:37.837Z,27.18
2018-07-25T07:58:04.397Z,27.47
2018-07-25T08:00:32.141Z,27.86
2018-07-25T08:02:59.268Z,28.24
2018-07-25T08:05:26.090Z,28.54
2018-07-25T08:07:52.609Z,28.56
2018-07-25T08:10:20.116Z,28.61
2018-07-25T08:12:47.893Z,28.63
2018-07-25T08:15:14.440Z,28.79
2018-07-25T08:17:43.136Z,28.84
2018-07-25T08:20:10.034Z,28.76
2018-07-25T08:22:36.772Z,28.72
2018-07-25T08:25:04.438Z,28.82
2018-07-25T08:27:31.333Z,28.97
2018-07-25T08:29:59.052Z,28.97
2018-07-25T08:32:25.713Z,29.21
2018-07-25T08:34:52.645Z,29.37
2018-07-25T08:37:19.214Z,29.72
2018-07-25T08:39:45.812Z,29.87
2018-07-25T08:42:12.873Z,29.73
2018-07-25T08:44:40.361Z,29.98
2018-07-25T08:47:07.940Z,30.22
2018-07-25T08:49:35.746Z,30.00
2018-07-25T08:52:02.394Z,30.00
2018-07-25T08:54:32.439Z,30.05
2018-07-25T08:56:59.960Z,30.57
2018-07-25T08:59:26.497Z,30.38
2018-07-25T09:01:53.086Z,30.23
2018-07-25T09:04:20.000Z,30.21
2018-07-25T09:06:46.577Z,29.93
2018-07-25T09:09:17.384Z,30.11
2018-07-25T09:11:44.234Z,30.26
2018-07-25T09:14:10.801Z,30.68
